Time;durP1;ratioP1;P1;durP2;ratioP2;P2;SDS_P1;SDS_P2;PMS_P1;PMS_P2;Temp;Humidity;BMP_temperature;BMP_pressure;BME280_temperature;BME280_humidity;BME280_pressure;Samples;Min_cycle;Max_cycle;Signal;HPM_P1;HPM_P2
2021/07/25 00:01:39;;;;;;;;;3.60;3.60;;;;;;;;5008790;28;9617;-80
2021/07/25 00:04:06;;;;;;;;;4.00;4.00;;;;;;;;5038091;28;9969;-79
2021/07/25 00:06:33;;;;;;;;;4.00;4.00;;;;;;;;5029206;28;8865;-78
2021/07/25 00:09:02;;;;;;;;;5.00;5.00;;;;;;;;5032488;28;8861;-79
2021/07/25 00:11:30;;;;;;;;;2.40;2.20;;;;;;;;5028331;28;8868;-79
2021/07/25 00:13:58;;;;;;;;;3.40;3.00;;;;;;;;5037182;28;8872;-80
2021/07/25 00:16:26;;;;;;;;;4.00;4.00;;;;;;;;5031930;28;8930;-79
2021/07/25 00:18:53;;;;;;;;;4.00;4.00;;;;;;;;5037453;28;8970;-79
2021/07/25 00:21:20;;;;;;;;;4.00;4.00;;;;;;;;5028805;28;8861;-80
2021/07/25 00:23:50;;;;;;;;;4.00;4.00;;;;;;;;5039913;28;8870;-80
2021/07/25 00:26:25;;;;;;;;;3.00;3.00;;;;;;;;5029688;28;8962;-80
2021/07/25 00:28:52;;;;;;;;;6.00;4.50;;;;;;;;5029957;28;8853;-79
2021/07/25 00:31:20;;;;;;;;;4.50;4.50;;;;;;;;5034607;28;8837;-79
2021/07/25 00:33:48;;;;;;;;;4.75;3.00;;;;;;;;5023429;28;8887;-79
2021/07/25 00:36:15;;;;;;;;;7.00;5.00;;;;;;;;5028389;28;8864;-79
2021/07/25 00:38:43;;;;;;;;;3.40;3.40;;;;;;;;5030382;28;8864;-79
2021/07/25 00:41:12;;;;;;;;;3.00;3.00;;;;;;;;5024214;28;8896;-79
2021/07/25 00:43:42;;;;;;;;;5.75;5.00;;;;;;;;5034244;28;8887;-79
2021/07/25 00:46:10;;;;;;;;;4.00;4.00;;;;;;;;5026898;28;8895;-79
2021/07/25 00:48:37;;;;;;;;;6.50;6.00;;;;;;;;5025850;28;8892;-79
2021/07/25 00:51:05;;;;;;;;;4.00;4.00;;;;;;;;5029345;28;8922;-77
2021/07/25 00:53:35;;;;;;;;;3.75;3.75;;;;;;;;5039485;28;8878;-77
2021/07/25 00:56:03;;;;;;;;;7.50;5.50;;;;;;;;5040165;28;8883;-77
2021/07/25 00:58:30;;;;;;;;;6.00;5.00;;;;;;;;5024232;28;9672;-78
2021/07/25 01:00:59;;;;;;;;;4.00;4.00;;;;;;;;5026526;28;8817;-80
2021/07/25 01:03:33;;;;;;;;;5.50;4.75;;;;;;;;5025715;28;8868;-77
2021/07/25 01:06:07;;;;;;;;;4.00;4.00;;;;;;;;5027985;28;8918;-77
2021/07/25 01:08:40;;;;;;;;;5.50;4.75;;;;;;;;5029496;28;9702;-77
2021/07/25 01:11:08;;;;;;;;;3.75;3.75;;;;;;;;5026240;28;9848;-78
2021/07/25 01:13:40;;;;;;;;;7.00;5.00;;;;;;;;5026212;28;8875;-77
2021/07/25 01:16:09;;;;;;;;;6.00;4.50;;;;;;;;5037667;28;8866;-77
2021/07/25 01:18:46;;;;;;;;;2.60;2.60;;;;;;;;5032503;28;8960;-78
2021/07/25 01:21:15;;;;;;;;;4.00;3.00;;;;;;;;5037764;28;8901;-78
2021/07/25 01:23:42;;;;;;;;;4.00;4.00;;;;;;;;5042421;28;8874;-77
2021/07/25 01:26:11;;;;;;;;;3.00;3.00;;;;;;;;5025842;28;8828;-77
2021/07/25 01:28:41;;;;;;;;;3.80;3.80;;;;;;;;5024492;28;8891;-77
2021/07/25 01:31:13;;;;;;;;;4.25;4.25;;;;;;;;5024054;28;8861;-77
2021/07/25 01:33:43;;;;;;;;;2.00;2.00;;;;;;;;5031593;28;8873;-77
2021/07/25 01:36:12;;;;;;;;;6.00;4.20;;;;;;;;5026127;28;8872;-77
2021/07/25 01:38:41;;;;;;;;;4.60;4.20;;;;;;;;5032272;28;8863;-77
2021/07/25 01:41:10;;;;;;;;;5.20;5.20;;;;;;;;5023761;28;8865;-76
2021/07/25 01:43:39;;;;;;;;;3.80;3.80;;;;;;;;5027093;28;8848;-78
2021/07/25 01:46:06;;;;;;;;;4.40;4.40;;;;;;;;5026230;28;8926;-78
2021/07/25 01:48:36;;;;;;;;;4.00;4.00;;;;;;;;5026156;28;8891;-77
2021/07/25 01:51:03;;;;;;;;;3.00;3.00;;;;;;;;5036962;28;8863;-77
2021/07/25 01:53:30;;;;;;;;;4.20;4.20;;;;;;;;5023976;28;9630;-77
2021/07/25 01:55:59;;;;;;;;;3.20;3.20;;;;;;;;5030662;28;8892;-77
2021/07/25 01:58:26;;;;;;;;;2.40;2.40;;;;;;;;5025570;28;9666;-77
2021/07/25 02:00:53;;;;;;;;;2.80;2.80;;;;;;;;5029180;28;8837;-77
2021/07/25 02:03:21;;;;;;;;;3.00;3.00;;;;;;;;5027094;28;9515;-77
2021/07/25 02:05:48;;;;;;;;;2.20;2.20;;;;;;;;5027148;28;8862;-77
2021/07/25 02:08:16;;;;;;;;;3.80;3.80;;;;;;;;5022721;28;8864;-77
2021/07/25 02:10:45;;;;;;;;;3.20;3.20;;;;;;;;5024843;28;8856;-77
2021/07/25 02:13:14;;;;;;;;;6.60;3.60;;;;;;;;5030233;28;8882;-77
2021/07/25 02:15:42;;;;;;;;;3.40;3.40;;;;;;;;5010481;28;8885;-77
2021/07/25 02:18:09;;;;;;;;;3.00;3.00;;;;;;;;5025569;28;8880;-78
2021/07/25 02:20:37;;;;;;;;;2.40;2.40;;;;;;;;5023923;28;8998;-77
2021/07/25 02:23:04;;;;;;;;;3.80;2.40;;;;;;;;5029226;28;8846;-78
2021/07/25 02:25:31;;;;;;;;;3.20;3.20;;;;;;;;5034620;28;8860;-78
2021/07/25 02:27:59;;;;;;;;;3.80;3.80;;;;;;;;5028391;28;8904;-78
2021/07/25 02:30:27;;;;;;;;;5.00;3.00;;;;;;;;5030396;28;8781;-78
2021/07/25 02:32:54;;;;;;;;;2.60;2.60;;;;;;;;5024343;28;8857;-78
2021/07/25 02:35:23;;;;;;;;;3.00;3.00;;;;;;;;5024014;28;8840;-78
2021/07/25 02:37:50;;;;;;;;;3.00;3.00;;;;;;;;5037374;28;8875;-77
2021/07/25 02:40:17;;;;;;;;;3.00;3.00;;;;;;;;5022015;28;8841;-77
2021/07/25 02:42:45;;;;;;;;;6.20;3.60;;;;;;;;5027446;28;8914;-77
2021/07/25 02:45:13;;;;;;;;;2.00;2.00;;;;;;;;5023794;28;8857;-77
2021/07/25 02:47:41;;;;;;;;;3.80;3.80;;;;;;;;5022856;28;9793;-77
2021/07/25 02:50:09;;;;;;;;;2.00;2.00;;;;;;;;5023917;28;8894;-78
2021/07/25 02:52:37;;;;;;;;;2.40;1.60;;;;;;;;5026372;28;8878;-77
2021/07/25 02:55:05;;;;;;;;;3.50;3.50;;;;;;;;5024032;28;8865;-78
2021/07/25 02:57:32;;;;;;;;;3.75;3.75;;;;;;;;5022591;28;8872;-77
2021/07/25 02:59:59;;;;;;;;;2.25;2.25;;;;;;;;5023990;28;8860;-77
2021/07/25 03:02:26;;;;;;;;;5.50;4.00;;;;;;;;5025101;28;8805;-77
2021/07/25 03:04:55;;;;;;;;;2.25;2.25;;;;;;;;5034027;28;8902;-77
2021/07/25 03:07:22;;;;;;;;;4.00;4.00;;;;;;;;5043732;28;8894;-78
2021/07/25 03:09:49;;;;;;;;;4.00;3.00;;;;;;;;5016722;28;8860;-78
2021/07/25 03:12:16;;;;;;;;;3.40;3.40;;;;;;;;5031566;28;8900;-78
2021/07/25 03:14:44;;;;;;;;;3.00;3.00;;;;;;;;5022981;28;8973;-79
2021/07/25 03:17:11;;;;;;;;;5.25;4.00;;;;;;;;5032047;28;8863;-79
2021/07/25 03:19:38;;;;;;;;;3.00;3.00;;;;;;;;5026721;28;8962;-78
2021/07/25 03:22:09;;;;;;;;;4.00;4.00;;;;;;;;5024658;28;8860;-79
2021/07/25 03:24:36;;;;;;;;;5.80;3.00;;;;;;;;5026665;28;8851;-77
2021/07/25 03:27:04;;;;;;;;;2.00;2.00;;;;;;;;5024046;28;8873;-78
2021/07/25 03:29:31;;;;;;;;;2.00;2.00;;;;;;;;5032958;28;8869;-78
2021/07/25 03:31:58;;;;;;;;;4.25;3.50;;;;;;;;5024653;28;8845;-78
2021/07/25 03:34:29;;;;;;;;;3.00;3.00;;;;;;;;5024102;28;9426;-78
2021/07/25 03:36:57;;;;;;;;;3.25;3.25;;;;;;;;5032445;28;10153;-78
2021/07/25 03:39:27;;;;;;;;;3.75;3.75;;;;;;;;5028452;28;8885;-79
2021/07/25 03:41:55;;;;;;;;;4.75;4.00;;;;;;;;5027759;28;8887;-79
2021/07/25 03:44:22;;;;;;;;;4.00;2.25;;;;;;;;5035802;28;8964;-78
2021/07/25 03:46:50;;;;;;;;;3.80;3.80;;;;;;;;5022051;28;9734;-79
2021/07/25 03:49:17;;;;;;;;;3.20;3.20;;;;;;;;5034782;28;8862;-78
2021/07/25 03:51:45;;;;;;;;;3.40;3.40;;;;;;;;5035255;28;8888;-78
2021/07/25 03:54:12;;;;;;;;;3.80;3.80;;;;;;;;5035348;28;8857;-78
2021/07/25 03:56:41;;;;;;;;;4.50;3.00;;;;;;;;5031859;28;8939;-78
2021/07/25 03:59:08;;;;;;;;;3.00;3.00;;;;;;;;5026622;28;8987;-79
2021/07/25 04:01:35;;;;;;;;;4.00;4.00;;;;;;;;5025913;28;9579;-78
2021/07/25 04:04:02;;;;;;;;;4.00;4.00;;;;;;;;5028174;28;8865;-79
2021/07/25 04:06:31;;;;;;;;;2.40;2.40;;;;;;;;5032660;28;8875;-79
2021/07/25 04:08:58;;;;;;;;;4.00;4.00;;;;;;;;5026222;28;8884;-78
2021/07/25 04:11:25;;;;;;;;;2.40;2.40;;;;;;;;5028571;28;8854;-78
2021/07/25 04:13:54;;;;;;;;;3.60;3.60;;;;;;;;5028377;28;9646;-79
2021/07/25 04:16:21;;;;;;;;;4.40;4.40;;;;;;;;5029384;28;8880;-79
2021/07/25 04:18:48;;;;;;;;;3.80;3.80;;;;;;;;5041227;28;8921;-80
2021/07/25 04:21:15;;;;;;;;;2.60;2.60;;;;;;;;5029189;28;8895;-78
2021/07/25 04:23:43;;;;;;;;;3.20;3.00;;;;;;;;5026812;28;8860;-78
2021/07/25 04:26:11;;;;;;;;;3.00;3.00;;;;;;;;5040159;28;8846;-79
2021/07/25 04:28:39;;;;;;;;;6.40;4.80;;;;;;;;5025183;28;9689;-79
2021/07/25 04:31:08;;;;;;;;;1.80;1.80;;;;;;;;5017379;28;8791;-82
2021/07/25 04:33:37;;;;;;;;;4.20;4.20;;;;;;;;5038801;28;8967;-84
2021/07/25 04:36:11;;;;;;;;;2.80;2.80;;;;;;;;5026407;28;8862;-87
2021/07/25 04:38:39;;;;;;;;;3.20;3.20;;;;;;;;5020583;28;8879;-82
2021/07/25 04:41:10;;;;;;;;;3.60;2.80;;;;;;;;5016114;28;8987;-85
2021/07/25 04:43:38;;;;;;;;;4.00;4.00;;;;;;;;5027516;28;9753;-81
2021/07/25 04:46:12;;;;;;;;;4.00;4.00;;;;;;;;5041395;28;8914;-82
2021/07/25 04:48:47;;;;;;;;;2.75;2.75;;;;;;;;5029182;28;9684;-82
2021/07/25 04:51:16;;;;;;;;;2.60;2.60;;;;;;;;5033100;28;8856;-81
2021/07/25 04:53:44;;;;;;;;;3.60;3.60;;;;;;;;5037291;28;8901;-79
2021/07/25 04:56:13;;;;;;;;;4.00;4.00;;;;;;;;5033147;28;8971;-88
2021/07/25 04:58:45;;;;;;;;;3.00;3.00;;;;;;;;5027716;28;9638;-82
2021/07/25 05:01:16;;;;;;;;;3.00;3.00;;;;;;;;5021524;28;8830;-84
2021/07/25 05:03:45;;;;;;;;;3.25;3.25;;;;;;;;5028233;28;8860;-88
2021/07/25 05:06:14;;;;;;;;;7.00;4.25;;;;;;;;5038285;28;8866;-80
2021/07/25 05:08:42;;;;;;;;;3.75;3.00;;;;;;;;5034372;28;8874;-82
2021/07/25 05:11:16;;;;;;;;;3.75;3.75;;;;;;;;5043720;28;8969;-82
2021/07/25 05:13:46;;;;;;;;;6.75;3.25;;;;;;;;5025049;28;8901;-86
2021/07/25 05:16:26;;;;;;;;;4.75;2.00;;;;;;;;5029593;28;8880;-81
2021/07/25 05:19:02;;;;;;;;;5.00;4.25;;;;;;;;5022592;28;8868;-79
2021/07/25 05:21:31;;;;;;;;;6.25;5.25;;;;;;;;5039008;28;9005;-81
2021/07/25 05:23:59;;;;;;;;;4.00;4.00;;;;;;;;5031730;28;8927;-79
2021/07/25 05:26:28;;;;;;;;;5.75;4.25;;;;;;;;5025629;28;8977;-81
2021/07/25 05:28:57;;;;;;;;;3.00;3.00;;;;;;;;5028896;28;8879;-80
2021/07/25 05:31:30;;;;;;;;;4.00;4.00;;;;;;;;5030156;28;8837;-81
2021/07/25 05:33:57;;;;;;;;;6.50;4.00;;;;;;;;5028217;28;8862;-79
2021/07/25 05:36:25;;;;;;;;;4.75;4.75;;;;;;;;5029902;28;9849;-82
2021/07/25 05:38:53;;;;;;;;;5.50;3.75;;;;;;;;5041857;28;8987;-78
2021/07/25 05:41:20;;;;;;;;;7.00;4.00;;;;;;;;5041286;28;8888;-79
2021/07/25 05:43:47;;;;;;;;;5.00;4.00;;;;;;;;5044090;28;8870;-80
2021/07/25 05:46:14;;;;;;;;;5.00;5.00;;;;;;;;5033157;28;8895;-83
2021/07/25 05:48:43;;;;;;;;;4.75;4.75;;;;;;;;5025211;28;8898;-83
2021/07/25 05:51:10;;;;;;;;;4.25;4.25;;;;;;;;5029296;28;8862;-82
2021/07/25 05:53:38;;;;;;;;;5.00;5.00;;;;;;;;5032407;28;8880;-79
2021/07/25 05:56:05;;;;;;;;;4.00;3.75;;;;;;;;5033016;28;9643;-84
2021/07/25 05:58:33;;;;;;;;;5.25;4.00;;;;;;;;5005434;28;8896;-78
2021/07/25 06:01:00;;;;;;;;;3.00;3.00;;;;;;;;5026768;28;8857;-75
2021/07/25 06:03:27;;;;;;;;;3.75;3.75;;;;;;;;5032832;28;8888;-81
2021/07/25 06:05:56;;;;;;;;;3.75;3.75;;;;;;;;5012952;28;9908;-79
2021/07/25 06:08:23;;;;;;;;;4.25;4.00;;;;;;;;5024807;28;8930;-81
2021/07/25 06:10:50;;;;;;;;;3.25;3.25;;;;;;;;5043727;28;9022;-75
2021/07/25 06:13:17;;;;;;;;;3.00;3.00;;;;;;;;5037599;28;8878;-76
2021/07/25 06:15:47;;;;;;;;;3.00;3.00;;;;;;;;5033567;28;9825;-84
2021/07/25 06:18:15;;;;;;;;;4.00;4.00;;;;;;;;5030175;28;9638;-83
2021/07/25 06:20:42;;;;;;;;;4.00;4.00;;;;;;;;5033599;28;9036;-82
2021/07/25 06:23:14;;;;;;;;;3.25;3.25;;;;;;;;5045349;28;8881;-82
2021/07/25 06:25:42;;;;;;;;;3.25;3.25;;;;;;;;5043209;28;8882;-83
2021/07/25 06:28:09;;;;;;;;;4.25;4.25;;;;;;;;5036929;28;8970;-81
2021/07/25 06:30:37;;;;;;;;;4.00;4.00;;;;;;;;5041527;28;8775;-82
2021/07/25 06:33:06;;;;;;;;;3.50;3.50;;;;;;;;5037144;28;8884;-81
2021/07/25 06:35:35;;;;;;;;;5.75;4.00;;;;;;;;5027328;28;8899;-80
2021/07/25 06:38:03;;;;;;;;;5.50;5.50;;;;;;;;5022508;28;8882;-79
2021/07/25 06:40:33;;;;;;;;;6.00;5.75;;;;;;;;5029632;28;8873;-82
2021/07/25 06:43:01;;;;;;;;;4.75;2.00;;;;;;;;5034279;28;8860;-80
2021/07/25 06:45:29;;;;;;;;;5.50;4.75;;;;;;;;5044133;28;8911;-81
2021/07/25 06:47:57;;;;;;;;;5.25;5.00;;;;;;;;5029221;28;8967;-81
2021/07/25 06:50:25;;;;;;;;;3.50;3.50;;;;;;;;5025559;28;8958;-82
2021/07/25 06:52:53;;;;;;;;;3.75;3.75;;;;;;;;5036810;28;10214;-82
2021/07/25 06:55:22;;;;;;;;;4.00;4.00;;;;;;;;5026911;28;8859;-79
2021/07/25 06:57:51;;;;;;;;;5.50;4.00;;;;;;;;5014141;28;8994;-80
2021/07/25 07:00:19;;;;;;;;;4.75;4.75;;;;;;;;5033397;28;8860;-81
2021/07/25 07:02:51;;;;;;;;;5.75;5.00;;;;;;;;5024558;28;10256;-80
2021/07/25 07:05:20;;;;;;;;;6.00;5.00;;;;;;;;5023861;28;9660;-81
2021/07/25 07:07:49;;;;;;;;;5.50;4.00;;;;;;;;5018367;28;8881;-80
2021/07/25 07:10:17;;;;;;;;;6.50;5.00;;;;;;;;5022653;28;8939;-81
2021/07/25 07:12:44;;;;;;;;;5.00;5.00;;;;;;;;5008471;28;8867;-81
2021/07/25 07:15:15;;;;;;;;;6.00;6.00;;;;;;;;5006637;28;8876;-80
2021/07/25 07:17:42;;;;;;;;;4.00;4.00;;;;;;;;5015464;28;8881;-77
2021/07/25 07:20:11;;;;;;;;;7.75;7.75;;;;;;;;5026236;28;9698;-81
2021/07/25 07:22:39;;;;;;;;;5.25;4.00;;;;;;;;5023978;28;8870;-83
2021/07/25 07:25:08;;;;;;;;;4.80;4.80;;;;;;;;5014269;28;9657;-83
2021/07/25 07:27:36;;;;;;;;;4.40;4.40;;;;;;;;5008908;28;8863;-83
2021/07/25 07:30:05;;;;;;;;;4.00;4.00;;;;;;;;5013635;28;9007;-83
2021/07/25 07:32:34;;;;;;;;;7.50;7.50;;;;;;;;5027923;28;8970;-84
2021/07/25 07:35:01;;;;;;;;;4.75;4.50;;;;;;;;5026566;28;8898;-83
2021/07/25 07:37:29;;;;;;;;;5.60;5.60;;;;;;;;5027523;28;8872;-82
2021/07/25 07:39:56;;;;;;;;;7.00;5.50;;;;;;;;5024662;28;8938;-84
2021/07/25 07:42:23;;;;;;;;;6.25;5.25;;;;;;;;5018984;28;8867;-82
2021/07/25 07:44:51;;;;;;;;;6.00;4.00;;;;;;;;4992185;28;8893;-84
2021/07/25 07:47:18;;;;;;;;;6.00;6.00;;;;;;;;5004335;28;8885;-83
2021/07/25 07:49:47;;;;;;;;;8.25;5.00;;;;;;;;5011065;28;8997;-82
2021/07/25 07:52:14;;;;;;;;;4.40;4.00;;;;;;;;5011521;28;8866;-82
2021/07/25 07:54:42;;;;;;;;;4.80;4.80;;;;;;;;5009650;28;8885;-82
2021/07/25 07:57:09;;;;;;;;;7.00;5.00;;;;;;;;5006801;28;8870;-85
2021/07/25 07:59:37;;;;;;;;;7.00;6.20;;;;;;;;5007263;28;8870;-90
2021/07/25 08:02:04;;;;;;;;;5.80;5.80;;;;;;;;5007810;28;8880;-87
2021/07/25 08:04:32;;;;;;;;;7.80;6.80;;;;;;;;5006318;28;8866;-88
2021/07/25 08:07:00;;;;;;;;;5.00;5.00;;;;;;;;5005653;28;8855;-87
2021/07/25 08:09:28;;;;;;;;;6.80;6.80;;;;;;;;5003847;28;8884;-86
2021/07/25 08:11:55;;;;;;;;;6.20;6.20;;;;;;;;5007989;28;8891;-86
2021/07/25 08:14:22;;;;;;;;;7.00;6.40;;;;;;;;5005732;28;8999;-86
2021/07/25 08:16:50;;;;;;;;;6.20;6.20;;;;;;;;5006668;28;8987;-84
2021/07/25 08:19:17;;;;;;;;;7.00;7.00;;;;;;;;5006392;28;8928;-86
2021/07/25 08:21:45;;;;;;;;;8.80;7.00;;;;;;;;5008358;28;8925;-85
2021/07/25 08:24:13;;;;;;;;;7.20;7.20;;;;;;;;5008800;28;8838;-86
2021/07/25 08:40:44;;;;;;;;;8.80;8.80;;;;;;;;4944276;28;8831;-86
2021/07/25 08:43:13;;;;;;;;;7.40;7.40;;;;;;;;4946306;28;8938;-87
2021/07/25 08:45:53;;;;;;;;;10.20;10.00;;;;;;;;4971991;28;8960;-85
2021/07/25 08:48:29;;;;;;;;;10.60;9.20;;;;;;;;4980172;28;8854;-90
2021/07/25 08:51:03;;;;;;;;;7.40;7.40;;;;;;;;4995990;28;8973;-85
2021/07/25 08:53:35;;;;;;;;;6.40;6.40;;;;;;;;4998832;28;8879;-84
2021/07/25 08:56:04;;;;;;;;;9.40;8.00;;;;;;;;5013026;28;8892;-90
2021/07/25 08:58:33;;;;;;;;;10.00;8.60;;;;;;;;5005646;28;8969;-84
2021/07/25 09:01:01;;;;;;;;;11.00;9.80;;;;;;;;5015712;28;9533;-87
2021/07/25 09:03:29;;;;;;;;;7.60;7.60;;;;;;;;5026654;28;8877;-86
2021/07/25 09:12:46;;;;;;;;;12.00;8.20;;;;;;;;5006604;28;8816;-84
2021/07/25 09:15:16;;;;;;;;;8.40;6.40;;;;;;;;5004319;28;8913;-86
2021/07/25 09:17:43;;;;;;;;;9.20;8.40;;;;;;;;5007324;28;8865;-87
2021/07/25 09:20:16;;;;;;;;;8.80;8.80;;;;;;;;5004660;28;8856;-86
2021/07/25 09:23:09;;;;;;;;;9.40;9.40;;;;;;;;5006554;28;8876;-83
2021/07/25 09:25:39;;;;;;;;;9.20;9.20;;;;;;;;5037641;28;8864;-88
2021/07/25 09:28:30;;;;;;;;;8.80;8.20;;;;;;;;5002191;28;8888;-84
2021/07/25 09:30:58;;;;;;;;;11.00;9.00;;;;;;;;4989419;28;8934;-84
2021/07/25 09:33:33;;;;;;;;;9.00;9.00;;;;;;;;5003185;28;9011;-85
2021/07/25 09:36:19;;;;;;;;;9.00;7.40;;;;;;;;5006090;28;8880;-86
2021/07/25 09:38:48;;;;;;;;;9.40;8.60;;;;;;;;5006696;28;8859;-81
2021/07/25 09:41:26;;;;;;;;;10.40;10.40;;;;;;;;5005462;28;8903;-81
2021/07/25 09:44:21;;;;;;;;;10.60;10.60;;;;;;;;5003876;28;9688;-83
2021/07/25 09:46:50;;;;;;;;;10.00;10.00;;;;;;;;5014602;28;9695;-80
2021/07/25 09:49:19;;;;;;;;;6.60;6.60;;;;;;;;5017206;28;8861;-84
2021/07/25 09:51:50;;;;;;;;;8.20;7.00;;;;;;;;5025620;28;8890;-85
2021/07/25 09:54:36;;;;;;;;;9.80;9.80;;;;;;;;5014421;28;9058;-84
2021/07/25 09:57:11;;;;;;;;;11.00;9.00;;;;;;;;5006890;28;8871;-84
2021/07/25 09:59:39;;;;;;;;;9.00;9.00;;;;;;;;5003790;28;8897;-85
2021/07/25 10:02:38;;;;;;;;;9.80;8.60;;;;;;;;5027505;28;8829;-85
2021/07/25 10:05:09;;;;;;;;;8.80;8.80;;;;;;;;5044639;28;8887;-84
2021/07/25 10:07:37;;;;;;;;;13.00;11.40;;;;;;;;5031999;28;8891;-85
2021/07/25 10:10:05;;;;;;;;;11.80;10.40;;;;;;;;5029127;28;8887;-84
2021/07/25 10:19:42;;;;;;;;;9.40;9.40;;;;;;;;4982914;28;8953;-86
2021/07/25 10:22:12;;;;;;;;;11.80;9.60;;;;;;;;4994811;28;8880;-86
2021/07/25 10:28:03;;;;;;;;;13.00;13.00;;;;;;;;5028278;28;9614;-84
2021/07/25 10:30:31;;;;;;;;;14.80;14.80;;;;;;;;5022861;28;8764;-85
2021/07/25 10:32:59;;;;;;;;;13.00;11.40;;;;;;;;5037180;28;8892;-84
2021/07/25 10:35:29;;;;;;;;;11.20;10.20;;;;;;;;5023924;28;8911;-84
2021/07/25 10:38:01;;;;;;;;;11.60;9.80;;;;;;;;5023235;28;8872;-84
2021/07/25 10:40:29;;;;;;;;;14.40;12.60;;;;;;;;5038852;28;8969;-84
2021/07/25 10:42:56;;;;;;;;;12.00;10.40;;;;;;;;5034750;28;8888;-84
2021/07/25 10:45:23;;;;;;;;;9.80;8.60;;;;;;;;5039136;28;8997;-84
2021/07/25 10:47:51;;;;;;;;;14.00;12.00;;;;;;;;5043734;28;8883;-84
2021/07/25 10:50:20;;;;;;;;;12.20;10.80;;;;;;;;5043634;28;8899;-85
2021/07/25 10:53:04;;;;;;;;;13.00;11.40;;;;;;;;5040260;28;8869;-84
2021/07/25 10:55:45;;;;;;;;;11.00;11.00;;;;;;;;5024085;28;8899;-86
2021/07/25 10:58:14;;;;;;;;;9.20;9.20;;;;;;;;5018993;28;8895;-85
2021/07/25 11:00:45;;;;;;;;;10.40;10.00;;;;;;;;5035241;28;8799;-85
2021/07/25 11:03:42;;;;;;;;;10.20;8.20;;;;;;;;5043867;28;8904;-84
2021/07/25 11:06:19;;;;;;;;;10.40;10.40;;;;;;;;5043529;28;8865;-83
2021/07/25 11:08:50;;;;;;;;;10.80;9.40;;;;;;;;5037583;28;8884;-84
2021/07/25 11:11:56;;;;;;;;;13.00;11.20;;;;;;;;5036229;28;8879;-85
2021/07/25 11:27:56;;;;;;;;;9.20;7.60;;;;;;;;5036171;28;8822;-83
2021/07/25 11:30:57;;;;;;;;;6.40;5.40;;;;;;;;5041427;28;8959;-83
2021/07/25 11:33:50;;;;;;;;;8.00;6.60;;;;;;;;5039480;28;8905;-84
2021/07/25 11:36:19;;;;;;;;;6.60;5.40;;;;;;;;5043496;28;8849;-83
2021/07/25 11:38:53;;;;;;;;;6.40;6.40;;;;;;;;5038377;28;8904;-84
2021/07/25 11:41:23;;;;;;;;;8.00;8.00;;;;;;;;5037789;28;8893;-84
2021/07/25 11:43:58;;;;;;;;;7.40;6.00;;;;;;;;5037021;28;8878;-83
2021/07/25 11:46:42;;;;;;;;;8.80;8.80;;;;;;;;5040415;28;8891;-83
2021/07/25 11:49:17;;;;;;;;;6.80;5.40;;;;;;;;5023200;28;8891;-84
2021/07/25 11:51:47;;;;;;;;;6.40;6.40;;;;;;;;5023193;28;8903;-84
2021/07/25 11:54:15;;;;;;;;;6.60;6.40;;;;;;;;5023930;28;8864;-84
2021/07/25 11:57:13;;;;;;;;;6.60;6.60;;;;;;;;5032347;28;8881;-83
2021/07/25 12:44:51;;;;;;;;;8.00;8.00;;;;;;;;4992901;28;8867;-83
2021/07/25 12:47:30;;;;;;;;;5.80;5.80;;;;;;;;5004169;28;8882;-83
2021/07/25 12:50:00;;;;;;;;;6.60;6.60;;;;;;;;5064622;28;8904;-83
2021/07/25 12:52:27;;;;;;;;;6.20;6.20;;;;;;;;5046204;28;8890;-83
2021/07/25 12:54:55;;;;;;;;;6.40;6.40;;;;;;;;5052873;28;8998;-83
2021/07/25 12:57:22;;;;;;;;;5.80;5.40;;;;;;;;5058688;28;8876;-82
2021/07/25 12:59:51;;;;;;;;;7.20;7.20;;;;;;;;5066250;28;8866;-84
2021/07/25 13:05:03;;;;;;;;;6.80;6.80;;;;;;;;5056198;28;8823;-83
2021/07/25 13:07:30;;;;;;;;;7.40;7.40;;;;;;;;5044693;28;9673;-82
2021/07/25 13:09:57;;;;;;;;;6.80;6.80;;;;;;;;5045451;28;8874;-83
2021/07/25 13:12:28;;;;;;;;;8.40;7.40;;;;;;;;5062301;28;8860;-82
2021/07/25 13:14:56;;;;;;;;;10.60;9.00;;;;;;;;5064267;28;8973;-81
2021/07/25 13:28:25;;;;;;;;;9.40;9.40;;;;;;;;4988648;28;8831;-83
2021/07/25 13:30:55;;;;;;;;;7.80;7.00;;;;;;;;5064772;28;8777;-83
2021/07/25 13:33:22;;;;;;;;;8.80;8.80;;;;;;;;5050324;28;8883;-84
2021/07/25 13:35:50;;;;;;;;;9.20;9.20;;;;;;;;5065012;28;9670;-85
2021/07/25 13:38:17;;;;;;;;;9.00;9.00;;;;;;;;5065292;28;8856;-84
2021/07/25 13:40:44;;;;;;;;;12.20;11.00;;;;;;;;5056085;28;8999;-84
2021/07/25 13:43:12;;;;;;;;;10.00;10.00;;;;;;;;5047904;28;8863;-85
2021/07/25 13:45:43;;;;;;;;;9.40;9.40;;;;;;;;5053472;28;8912;-84
2021/07/25 13:48:12;;;;;;;;;9.60;9.60;;;;;;;;5047721;28;8869;-85
2021/07/25 13:50:40;;;;;;;;;9.20;9.20;;;;;;;;5063416;28;8885;-85
2021/07/25 13:53:23;;;;;;;;;9.00;9.00;;;;;;;;5046854;28;8911;-84
2021/07/25 13:55:50;;;;;;;;;8.60;7.80;;;;;;;;5020082;28;8884;-84
2021/07/25 13:58:17;;;;;;;;;7.20;6.80;;;;;;;;5061940;28;8914;-85
2021/07/25 14:00:45;;;;;;;;;7.20;7.20;;;;;;;;5058874;28;8766;-84
2021/07/25 14:03:17;;;;;;;;;7.40;5.80;;;;;;;;5063147;28;8868;-84
2021/07/25 14:05:44;;;;;;;;;6.60;6.00;;;;;;;;5064442;28;8884;-84
2021/07/25 14:08:11;;;;;;;;;8.20;6.60;;;;;;;;5053982;28;8874;-83
2021/07/25 14:10:39;;;;;;;;;5.00;5.00;;;;;;;;5060041;28;9026;-84
2021/07/25 14:13:06;;;;;;;;;6.00;6.00;;;;;;;;5064603;28;8856;-85
2021/07/25 14:15:36;;;;;;;;;5.60;5.60;;;;;;;;5059376;28;9041;-84
2021/07/25 14:18:04;;;;;;;;;5.80;5.80;;;;;;;;5044512;28;8878;-81
2021/07/25 14:20:35;;;;;;;;;6.40;6.40;;;;;;;;5060257;28;8894;-84
2021/07/25 14:23:03;;;;;;;;;5.20;5.20;;;;;;;;5064509;28;8868;-84
2021/07/25 14:25:31;;;;;;;;;5.00;5.00;;;;;;;;5062913;28;8880;-83
2021/07/25 14:27:58;;;;;;;;;4.20;4.20;;;;;;;;5059078;28;8900;-84
2021/07/25 14:30:25;;;;;;;;;5.80;5.20;;;;;;;;5063070;28;8768;-84
2021/07/25 14:32:53;;;;;;;;;5.80;5.80;;;;;;;;5057183;28;9572;-84
2021/07/25 14:35:20;;;;;;;;;4.60;4.60;;;;;;;;5063282;28;8979;-84
2021/07/25 14:37:49;;;;;;;;;5.80;4.40;;;;;;;;5062732;28;8892;-84
2021/07/25 14:40:53;;;;;;;;;6.80;6.80;;;;;;;;5055118;28;8878;-84
2021/07/25 14:43:21;;;;;;;;;6.40;6.40;;;;;;;;5058785;28;8877;-83
2021/07/25 14:45:48;;;;;;;;;4.80;4.80;;;;;;;;5043297;28;8880;-84
2021/07/25 14:48:15;;;;;;;;;10.40;7.00;;;;;;;;5057530;28;8878;-84
2021/07/25 14:50:42;;;;;;;;;7.20;6.00;;;;;;;;5042506;28;9667;-84
2021/07/25 14:53:11;;;;;;;;;6.00;6.00;;;;;;;;5062755;28;8968;-84
2021/07/25 14:55:43;;;;;;;;;5.40;5.40;;;;;;;;5042780;28;8894;-85
2021/07/25 14:58:10;;;;;;;;;5.20;5.20;;;;;;;;5030925;28;8964;-83
2021/07/25 15:00:37;;;;;;;;;7.00;7.00;;;;;;;;5048903;28;8774;-83
2021/07/25 15:03:05;;;;;;;;;9.00;7.40;;;;;;;;5030002;28;8970;-83
2021/07/25 15:05:32;;;;;;;;;6.00;6.00;;;;;;;;5044093;28;9026;-83
2021/07/25 15:07:59;;;;;;;;;8.20;8.20;;;;;;;;5047075;28;9682;-84
2021/07/25 15:10:28;;;;;;;;;5.60;5.60;;;;;;;;5043429;28;8878;-84
2021/07/25 15:12:55;;;;;;;;;8.00;8.00;;;;;;;;5049922;28;8884;-84
2021/07/25 15:15:22;;;;;;;;;6.60;6.60;;;;;;;;5056651;28;8866;-84
2021/07/25 15:17:50;;;;;;;;;9.40;8.00;;;;;;;;5043257;28;8999;-84
2021/07/25 15:20:17;;;;;;;;;7.60;7.60;;;;;;;;5044213;28;8895;-84
2021/07/25 15:22:44;;;;;;;;;7.00;7.00;;;;;;;;5063809;28;8848;-84
2021/07/25 15:25:12;;;;;;;;;7.00;7.00;;;;;;;;5045753;28;8896;-85
2021/07/25 15:27:41;;;;;;;;;6.20;6.20;;;;;;;;5052309;28;8865;-84
2021/07/25 15:30:10;;;;;;;;;8.00;7.20;;;;;;;;5059784;28;8856;-84
2021/07/25 15:32:37;;;;;;;;;7.60;7.00;;;;;;;;5055757;28;9770;-84
2021/07/25 15:35:05;;;;;;;;;7.60;6.60;;;;;;;;5052661;28;9000;-85
2021/07/25 15:37:32;;;;;;;;;6.80;6.80;;;;;;;;5058026;28;8997;-84
2021/07/25 15:40:00;;;;;;;;;6.20;6.20;;;;;;;;5049455;28;8868;-84
2021/07/25 15:45:51;;;;;;;;;6.80;6.80;;;;;;;;5068046;28;8828;-84
2021/07/25 15:48:18;;;;;;;;;7.20;7.20;;;;;;;;5066995;28;8892;-83
2021/07/25 15:50:48;;;;;;;;;6.60;6.60;;;;;;;;5066418;28;8892;-85
2021/07/25 15:53:16;;;;;;;;;5.00;5.00;;;;;;;;5067621;28;8849;-85
2021/07/25 15:55:43;;;;;;;;;7.00;5.60;;;;;;;;5047747;28;8890;-85
2021/07/25 15:58:10;;;;;;;;;7.60;6.00;;;;;;;;5041721;28;8920;-85
2021/07/25 16:00:37;;;;;;;;;6.80;6.80;;;;;;;;5061625;28;8766;-84
2021/07/25 16:03:06;;;;;;;;;5.00;4.80;;;;;;;;5054045;28;8878;-85
2021/07/25 16:05:36;;;;;;;;;4.40;4.40;;;;;;;;5046567;28;8874;-83
2021/07/25 16:08:04;;;;;;;;;3.40;2.80;;;;;;;;5059195;28;8856;-81
2021/07/25 16:10:33;;;;;;;;;3.80;3.80;;;;;;;;5066755;28;8859;-75
2021/07/25 16:13:00;;;;;;;;;5.00;5.00;;;;;;;;5058517;28;8852;-83
2021/07/25 16:15:27;;;;;;;;;4.20;3.40;;;;;;;;5063653;28;8881;-80
2021/07/25 16:17:55;;;;;;;;;3.00;3.00;;;;;;;;5058628;28;8866;-79
2021/07/25 16:20:24;;;;;;;;;5.60;4.00;;;;;;;;5061868;28;8876;-80
2021/07/25 16:22:51;;;;;;;;;5.20;5.20;;;;;;;;5048693;28;8856;-81
2021/07/25 16:25:19;;;;;;;;;7.00;5.60;;;;;;;;5066229;28;9658;-80
2021/07/25 16:27:46;;;;;;;;;8.60;6.60;;;;;;;;5056117;28;8884;-81
2021/07/25 16:30:14;;;;;;;;;4.80;4.80;;;;;;;;5061188;28;8880;-83
2021/07/25 16:32:41;;;;;;;;;6.00;6.00;;;;;;;;5052984;28;8857;-78
2021/07/25 16:35:10;;;;;;;;;4.40;4.40;;;;;;;;5044010;28;9728;-82
2021/07/25 16:37:38;;;;;;;;;3.60;3.60;;;;;;;;5062583;28;8890;-74
2021/07/25 16:40:07;;;;;;;;;4.00;4.00;;;;;;;;5047866;28;8866;-79
2021/07/25 16:42:35;;;;;;;;;4.00;4.00;;;;;;;;5048016;28;8896;-78
2021/07/25 16:45:02;;;;;;;;;2.00;2.00;;;;;;;;5052053;28;8857;-79
2021/07/25 16:47:29;;;;;;;;;4.60;4.60;;;;;;;;5065809;28;8882;-78
2021/07/25 16:49:56;;;;;;;;;5.00;3.80;;;;;;;;5054721;28;8906;-81
2021/07/25 16:52:24;;;;;;;;;5.40;5.40;;;;;;;;5048443;28;8859;-82
2021/07/25 16:54:52;;;;;;;;;2.00;2.00;;;;;;;;5047836;28;8866;-82
2021/07/25 16:57:20;;;;;;;;;2.80;2.80;;;;;;;;5057691;28;8934;-80